Time;durP1;ratioP1;P1;durP2;ratioP2;P2;SDS_P1;SDS_P2;PMS_P1;PMS_P2;Temp;Humidity;BMP_temperature;BMP_pressure;BME280_temperature;BME280_humidity;BME280_pressure;Samples;Min_cycle;Max_cycle;Signal;HPM_P1;HPM_P2
2022/12/02 00:00:26;;;;;;;104.45;64.40;;;10.00;96.70;;;;;;4994222;28;20414;-69
2022/12/02 00:03:34;;;;;;;94.97;59.90;;;9.90;96.80;;;;;;4993297;28;20204;-68
2022/12/02 00:06:38;;;;;;;96.30;60.80;;;10.60;96.80;;;;;;4994107;28;20049;-69
2022/12/02 00:09:43;;;;;;;94.70;59.45;;;10.20;96.70;;;;;;4993869;28;20509;-69
2022/12/02 00:12:47;;;;;;;96.32;59.28;;;10.10;96.70;;;;;;4994337;28;20124;-69
2022/12/02 00:15:55;;;;;;;90.93;58.03;;;10.10;96.90;;;;;;4994056;28;20045;-69
2022/12/02 00:18:59;;;;;;;95.30;59.85;;;10.40;96.90;;;;;;4993845;28;20042;-69
2022/12/02 00:22:06;;;;;;;83.43;55.85;;;;;;;;;;4993679;28;20046;-68
2022/12/02 00:25:10;;;;;;;89.82;53.95;;;11.50;97.20;;;;;;4993682;28;20041;-69
2022/12/02 00:28:15;;;;;;;87.88;52.58;;;;;;;;;;4993598;28;20510;-69
2022/12/02 00:31:19;;;;;;;88.32;53.03;;;10.20;96.60;;;;;;4992800;28;20390;-68
2022/12/02 00:34:23;;;;;;;82.53;51.50;;;;;;;;;;4993563;28;20646;-70
2022/12/02 00:37:28;;;;;;;80.93;51.38;;;;;;;;;;4994174;28;20049;-70
2022/12/02 00:40:32;;;;;;;85.18;51.53;;;;;;;;;;5003783;28;20049;-69
2022/12/02 00:46:58;;;;;;;83.05;50.40;;;10.30;96.90;;;;;;4992465;28;20049;-69
2022/12/02 00:50:05;;;;;;;91.55;55.67;;;10.40;97.00;;;;;;5003779;28;20394;-69
2022/12/02 00:53:10;;;;;;;82.60;53.33;;;;;;;;;;4992283;28;20509;-69
2022/12/02 00:56:14;;;;;;;85.35;53.30;;;10.30;97.20;;;;;;4993026;28;20049;-69
2022/12/02 00:59:18;;;;;;;87.18;53.92;;;10.50;97.20;;;;;;4993717;28;20049;-69
2022/12/02 01:02:22;;;;;;;88.10;53.63;;;10.50;97.00;;;;;;4992300;28;20513;-69
2022/12/02 01:05:26;;;;;;;91.50;51.10;;;;;;;;;;4992327;28;20041;-69
2022/12/02 01:08:30;;;;;;;79.40;52.92;;;10.30;97.10;;;;;;4993167;28;20493;-69
2022/12/02 01:11:34;;;;;;;74.82;48.40;;;10.30;97.20;;;;;;4992998;28;20045;-69
2022/12/02 01:14:38;;;;;;;77.88;48.88;;;;;;;;;;4992719;28;20053;-70
2022/12/02 01:17:42;;;;;;;80.47;49.30;;;10.80;97.30;;;;;;5003202;28;20042;-69
2022/12/02 01:20:47;;;;;;;82.95;48.67;;;;;;;;;;4992803;28;20065;-69
2022/12/02 01:23:51;;;;;;;75.60;46.55;;;;;;;;;;4992925;28;20049;-69
2022/12/02 01:26:55;;;;;;;77.05;48.80;;;;;;;;;;5003219;28;20053;-69
2022/12/02 01:30:00;;;;;;;77.93;50.90;;;;;;;;;;4992575;28;20057;-69
2022/12/02 01:33:04;;;;;;;88.38;51.55;;;;;;;;;;4991416;28;20521;-69
2022/12/02 01:36:09;;;;;;;90.00;54.38;;;;;;;;;;4992801;28;20661;-69
2022/12/02 01:39:13;;;;;;;80.90;50.63;;;;;;;;;;4992884;28;20041;-69
2022/12/02 01:42:18;;;;;;;84.88;50.83;;;;;;;;;;5003043;28;20509;-69
2022/12/02 01:45:22;;;;;;;79.50;51.95;;;13.20;98.20;;;;;;4991521;28;20072;-69
2022/12/02 01:48:28;;;;;;;76.20;50.75;;;9.90;97.40;;;;;;4991853;28;20053;-69
2022/12/02 01:51:32;;;;;;;74.13;48.47;;;10.60;97.60;;;;;;4991520;28;20053;-69
2022/12/02 01:54:37;;;;;;;74.18;49.63;;;;;;;;;;4992481;28;20073;-70
2022/12/02 01:57:41;;;;;;;76.70;49.30;;;;;;;;;;4991970;28;20398;-70
2022/12/02 02:00:45;;;;;;;74.32;48.85;;;;;;;;;;4992024;28;20069;-68
2022/12/02 02:03:50;;;;;;;78.40;51.05;;;;;;;;;;4991669;28;20045;-70
2022/12/02 02:06:54;;;;;;;79.05;49.35;;;;;;;;;;4991987;28;20406;-70
2022/12/02 02:09:59;;;;;;;74.65;48.20;;;;;;;;;;4990920;28;20038;-69
2022/12/02 02:13:07;;;;;;;79.70;50.90;;;10.60;98.10;;;;;;4991102;28;20400;-69
2022/12/02 02:16:15;;;;;;;77.30;50.20;;;;;;;;;;4991692;28;20045;-69
2022/12/02 02:19:19;;;;;;;80.60;52.20;;;10.70;98.00;;;;;;4991984;28;20041;-69
2022/12/02 02:22:28;;;;;;;81.78;52.92;;;11.00;98.10;;;;;;4991086;28;20056;-69
2022/12/02 02:25:39;;;;;;;82.72;54.13;;;10.70;97.90;;;;;;4991184;28;20049;-69
2022/12/02 02:28:43;;;;;;;85.13;54.97;;;10.70;97.90;;;;;;4991014;28;20041;-69
2022/12/02 02:31:48;;;;;;;80.15;52.00;;;;;;;;;;5001921;28;20058;-69
2022/12/02 02:34:52;;;;;;;73.28;47.42;;;;;;;;;;5001937;28;20081;-69
2022/12/02 02:37:56;;;;;;;74.68;48.78;;;;;;;;;;4991543;28;20065;-68
2022/12/02 02:41:02;;;;;;;75.47;47.08;;;10.10;97.90;;;;;;4990854;28;20434;-68
2022/12/02 02:44:06;;;;;;;70.13;46.45;;;10.70;98.20;;;;;;5002207;28;20065;-68
2022/12/02 02:47:10;;;;;;;72.53;46.20;;;;;;;;;;4991149;28;20494;-68
2022/12/02 02:50:15;;;;;;;73.15;45.35;;;10.40;98.20;;;;;;4991391;28;20037;-68
2022/12/02 02:53:22;;;;;;;68.30;44.80;;;10.50;98.80;;;;;;5002042;28;20057;-68
2022/12/02 02:56:28;;;;;;;65.55;42.83;;;9.80;98.70;;;;;;4990765;28;20062;-67
2022/12/02 02:59:33;;;;;;;66.60;41.85;;;10.80;98.70;;;;;;5002041;28;20538;-69
2022/12/02 03:02:39;;;;;;;58.95;40.38;;;;;;;;;;5002167;28;20041;-68
2022/12/02 03:05:43;;;;;;;63.00;39.97;;;10.70;98.60;;;;;;4991513;28;20054;-69
2022/12/02 03:08:48;;;;;;;62.47;37.90;;;10.70;98.60;;;;;;4990451;28;20050;-69
2022/12/02 03:11:53;;;;;;;61.20;38.78;;;10.70;98.80;;;;;;4990839;28;20061;-69
2022/12/02 03:14:58;;;;;;;62.13;38.40;;;10.70;98.70;;;;;;4992703;28;20061;-69
2022/12/02 03:18:02;;;;;;;57.88;38.40;;;;;;;;;;4995421;28;20465;-69
2022/12/02 03:21:08;;;;;;;64.13;37.75;;;10.60;99.20;;;;;;4994964;28;20045;-69
2022/12/02 03:24:12;;;;;;;56.53;36.60;;;10.50;99.50;;;;;;4994882;28;20065;-69
2022/12/02 03:27:16;;;;;;;56.00;37.72;;;10.30;99.30;;;;;;4995682;28;20045;-69
2022/12/02 03:30:19;;;;;;;58.45;38.15;;;10.30;99.50;;;;;;4994828;28;20038;-69
2022/12/02 03:33:24;;;;;;;59.70;38.85;;;9.80;99.80;;;;;;4994438;28;20061;-69
2022/12/02 03:36:29;;;;;;;61.58;38.97;;;;;;;;;;4994961;28;20053;-69
2022/12/02 03:39:33;;;;;;;61.15;39.55;;;;;;;;;;5005490;28;20061;-69
2022/12/02 03:42:37;;;;;;;60.80;39.25;;;;;;;;;;4994809;28;20083;-69
2022/12/02 03:45:42;;;;;;;60.70;39.42;;;10.40;99.90;;;;;;4994697;28;20041;-68
2022/12/02 03:48:46;;;;;;;60.85;38.13;;;;;;;;;;4994696;28;20049;-68
2022/12/02 03:51:50;;;;;;;62.15;38.03;;;10.40;99.90;;;;;;4994553;28;20513;-69
2022/12/02 03:54:55;;;;;;;61.03;39.50;;;10.20;99.90;;;;;;4994287;28;20050;-69
2022/12/02 03:58:04;;;;;;;61.35;37.05;;;10.10;99.90;;;;;;4994542;28;20045;-69
2022/12/02 04:01:08;;;;;;;54.55;36.40;;;;;;;;;;4994285;28;20050;-69
2022/12/02 04:04:11;;;;;;;55.85;37.22;;;10.30;99.90;;;;;;4994262;28;20061;-69
2022/12/02 04:07:16;;;;;;;57.40;37.13;;;;;;;;;;4994028;28;20065;-68
2022/12/02 04:10:20;;;;;;;51.10;35.58;;;10.20;99.90;;;;;;4994349;28;20042;-69
2022/12/02 04:13:24;;;;;;;50.95;34.47;;;;;;;;;;4993419;28;20073;-69
2022/12/02 04:16:29;;;;;;;60.33;36.85;;;;;;;;;;4993970;28;20045;-68
2022/12/02 04:19:32;;;;;;;57.60;37.10;;;10.70;99.90;;;;;;4994185;28;20045;-69
2022/12/02 04:22:37;;;;;;;54.28;36.38;;;;;;;;;;4993962;28;20041;-69
2022/12/02 04:25:41;;;;;;;56.42;36.55;;;;;;;;;;4994251;28;20057;-69
2022/12/02 04:28:45;;;;;;;53.97;35.33;;;10.40;99.90;;;;;;4993833;28;20293;-69
2022/12/02 04:31:49;;;;;;;51.35;33.63;;;10.50;99.90;;;;;;4993588;28;20057;-68
2022/12/02 04:34:54;;;;;;;52.38;32.65;;;;;;;;;;4993589;28;20061;-69
2022/12/02 04:37:58;;;;;;;48.17;30.73;;;9.90;99.90;;;;;;4993414;28;20414;-69
2022/12/02 04:41:02;;;;;;;43.35;29.70;;;;;;;;;;4993632;28;20045;-69
2022/12/02 04:44:07;;;;;;;42.70;29.38;;;;;;;;;;4993710;28;20396;-69
2022/12/02 04:47:10;;;;;;;45.10;26.45;;;10.70;99.90;;;;;;4993685;28;20208;-68
2022/12/02 04:50:15;;;;;;;44.10;26.70;;;;;;;;;;4993439;28;20061;-69
2022/12/02 04:53:19;;;;;;;36.47;26.27;;;;;;;;;;4993130;28;20497;-69
2022/12/02 04:56:24;;;;;;;38.63;25.83;;;;;;;;;;4993183;28;20469;-69
2022/12/02 04:59:46;;;;;;;39.50;24.98;;;9.10;99.90;;;;;;4993058;28;20513;-69
2022/12/02 05:02:51;;;;;;;34.50;23.48;;;;;;;;;;4993249;28;20532;-68
2022/12/02 05:05:55;;;;;;;30.08;21.90;;;;;;;;;;4993260;28;20477;-69
2022/12/02 05:08:59;;;;;;;31.33;21.00;;;;;;;;;;4993014;28;20044;-69
2022/12/02 05:12:03;;;;;;;34.00;21.95;;;11.00;99.90;;;;;;4992924;28;20521;-68
2022/12/02 05:15:08;;;;;;;34.72;24.10;;;11.00;99.90;;;;;;4992812;28;20049;-69
2022/12/02 05:18:12;;;;;;;39.13;23.77;;;;;;;;;;4993099;28;20041;-69
2022/12/02 05:21:16;;;;;;;43.38;24.70;;;;;;;;;;4993014;28;20509;-69
2022/12/02 05:24:20;;;;;;;45.55;27.30;;;;;;;;;;4992829;28;20042;-69
2022/12/02 05:27:24;;;;;;;43.95;27.25;;;;;;;;;;4992588;28;20513;-68
2022/12/02 05:30:29;;;;;;;49.47;28.63;;;;;;;;;;4992707;28;20041;-69
2022/12/02 05:33:33;;;;;;;47.42;29.63;;;;;;;;;;4992386;28;20057;-69
2022/12/02 05:36:37;;;;;;;41.85;27.70;;;;;;;;;;4992469;28;20045;-69
2022/12/02 05:39:42;;;;;;;45.83;28.75;;;;;;;;;;4992575;28;20041;-69
2022/12/02 05:42:46;;;;;;;49.53;28.55;;;;;;;;;;4992380;28;20049;-69
2022/12/02 05:45:55;;;;;;;54.30;28.27;;;11.00;99.90;;;;;;4992189;28;20045;-69
2022/12/02 05:48:59;;;;;;;44.42;27.30;;;12.40;99.90;;;;;;4992573;28;20057;-69
2022/12/02 05:52:23;;;;;;;50.78;28.40;;;11.00;99.90;;;;;;4992247;28;20601;-69
2022/12/02 05:55:27;;;;;;;53.83;27.65;;;;;;;;;;4992079;28;20513;-68
2022/12/02 05:58:31;;;;;;;50.53;28.42;;;;;;;;;;4992141;28;20046;-68
2022/12/02 06:01:38;;;;;;;46.58;28.38;;;9.50;99.90;;;;;;4992124;28;20053;-69
2022/12/02 06:04:43;;;;;;;52.95;28.10;;;;;;;;;;4991970;28;20042;-69
2022/12/02 06:07:50;;;;;;;50.53;28.67;;;10.30;99.90;;;;;;4991809;28;20053;-69
2022/12/02 06:10:58;;;;;;;48.35;27.90;;;10.60;99.90;;;;;;4991927;28;20401;-69
2022/12/02 06:14:12;;;;;;;50.25;28.15;;;10.10;99.90;;;;;;4991766;28;20049;-69
2022/12/02 06:17:17;;;;;;;50.85;27.50;;;10.50;99.90;;;;;;4991972;28;20049;-69
2022/12/02 06:20:29;;;;;;;47.00;25.45;;;10.70;99.90;;;;;;4991802;28;20045;-69
2022/12/02 06:23:33;;;;;;;43.75;26.30;;;;;;;;;;4991987;28;20042;-69
2022/12/02 06:26:38;;;;;;;41.67;25.75;;;;;;;;;;4991359;28;20049;-69
2022/12/02 06:29:53;;;;;;;37.92;24.25;;;10.70;99.90;;;;;;4991567;28;20045;-69
2022/12/02 06:32:58;;;;;;;36.90;23.25;;;11.00;99.90;;;;;;4990472;28;20061;-69
2022/12/02 06:36:24;;;;;;;33.65;21.42;;;11.00;99.90;;;;;;4991734;28;20061;-69
2022/12/02 06:39:28;;;;;;;42.78;22.85;;;;;;;;;;4991310;28;20042;-69
2022/12/02 06:42:37;;;;;;;33.17;22.45;;;11.50;99.90;;;;;;4991653;28;20126;-69
2022/12/02 06:45:42;;;;;;;43.28;26.10;;;;;;;;;;4991791;28;20497;-69
2022/12/02 06:48:47;;;;;;;42.03;25.05;;;;;;;;;;4991080;28;20041;-69
2022/12/02 06:51:55;;;;;;;42.45;25.83;;;;;;;;;;4995598;28;20057;-70
2022/12/02 06:54:59;;;;;;;38.05;22.15;;;11.00;99.90;;;;;;4995553;28;20431;-68
2022/12/02 06:58:25;;;;;;;40.28;23.52;;;11.00;99.90;;;;;;4995429;28;20045;-68
2022/12/02 07:01:30;;;;;;;37.78;23.15;;;;;;;;;;4995216;28;20201;-70
2022/12/02 07:04:34;;;;;;;42.72;24.38;;;;;;;;;;4995404;28;20112;-72
2022/12/02 07:07:38;;;;;;;44.70;23.55;;;11.10;99.90;;;;;;4995022;28;20402;-71
2022/12/02 07:10:43;;;;;;;34.75;22.33;;;;;;;;;;4995110;28;20053;-69
2022/12/02 07:13:47;;;;;;;35.13;22.25;;;;;;;;;;4995114;28;20037;-69
2022/12/02 07:16:58;;;;;;;32.30;22.83;;;13.00;99.90;;;;;;4995408;28;20074;-71
2022/12/02 07:20:05;;;;;;;35.53;21.70;;;14.50;99.90;;;;;;4995367;28;20038;-69
2022/12/02 07:23:24;;;;;;;31.55;20.73;;;11.40;99.90;;;;;;4995186;28;20042;-69
2022/12/02 07:26:29;;;;;;;30.00;20.98;;;;;;;;;;4994904;28;20057;-70
2022/12/02 07:29:33;;;;;;;39.72;21.23;;;;;;;;;;4995249;28;20509;-71
2022/12/02 07:32:38;;;;;;;38.30;22.50;;;;;;;;;;4994516;28;20142;-70
2022/12/02 07:35:42;;;;;;;36.33;21.95;;;;;;;;;;4993826;28;20061;-72
2022/12/02 07:38:46;;;;;;;31.58;21.20;;;;;;;;;;4994412;28;20049;-74
2022/12/02 07:41:50;;;;;;;39.47;22.40;;;;;;;;;;4994069;28;20049;-75
2022/12/02 07:44:55;;;;;;;28.98;20.35;;;;;;;;;;4995321;28;20045;-72
2022/12/02 07:47:59;;;;;;;30.27;20.10;;;11.60;99.90;;;;;;4994576;28;20049;-69
2022/12/02 07:51:03;;;;;;;31.50;19.77;;;;;;;;;;4994359;28;20041;-69
2022/12/02 07:54:07;;;;;;;35.28;20.70;;;;;;;;;;4994260;28;20045;-69
2022/12/02 07:57:11;;;;;;;39.42;21.63;;;;;;;;;;4993878;28;20065;-69
2022/12/02 08:00:16;;;;;;;32.08;20.48;;;11.80;99.90;;;;;;4993547;28;20501;-68
2022/12/02 08:03:20;;;;;;;32.72;20.77;;;;;;;;;;4993746;28;20053;-68
2022/12/02 08:06:25;;;;;;;32.50;20.75;;;;;;;;;;4993705;28;20053;-69
2022/12/02 08:09:29;;;;;;;29.75;20.10;;;;;;;;;;4993836;28;20049;-69
2022/12/02 08:12:33;;;;;;;32.30;19.60;;;;;;;;;;4993791;28;20046;-68
2022/12/02 08:15:38;;;;;;;28.88;18.83;;;;;;;;;;4993652;28;20073;-70
2022/12/02 08:18:42;;;;;;;28.40;19.40;;;10.80;99.90;;;;;;4993712;28;20041;-69
2022/12/02 08:21:45;;;;;;;29.13;19.92;;;12.10;99.90;;;;;;4994011;28;20053;-70
2022/12/02 08:24:50;;;;;;;28.15;20.00;;;;;;;;;;4994134;28;20065;-69
2022/12/02 08:27:54;;;;;;;27.65;18.95;;;;;;;;;;4993264;28;20053;-70
2022/12/02 08:30:58;;;;;;;24.67;18.58;;;12.40;99.90;;;;;;4993737;28;20049;-70
2022/12/02 08:34:02;;;;;;;28.25;19.58;;;;;;;;;;4993507;28;20328;-69
2022/12/02 08:37:06;;;;;;;26.05;17.60;;;12.30;99.90;;;;;;4993706;28;20053;-69
2022/12/02 08:40:11;;;;;;;30.55;20.00;;;12.30;99.90;;;;;;4993067;28;20501;-70
2022/12/02 08:43:15;;;;;;;31.83;20.67;;;12.40;99.90;;;;;;4993769;28;20053;-67
2022/12/02 08:46:19;;;;;;;31.50;21.48;;;12.40;99.90;;;;;;4993344;28;20037;-69
2022/12/02 08:49:23;;;;;;;34.75;22.67;;;10.70;99.90;;;;;;4993515;28;20057;-69
2022/12/02 08:52:27;;;;;;;37.40;24.50;;;12.40;99.90;;;;;;4993124;28;20057;-69
2022/12/02 08:55:31;;;;;;;46.90;26.00;;;12.30;99.90;;;;;;4992878;28;20066;-68
2022/12/02 08:58:36;;;;;;;42.05;26.00;;;10.10;99.90;;;;;;4993078;28;20049;-68
2022/12/02 09:01:40;;;;;;;39.38;24.90;;;;;;;;;;4992823;28;20057;-69
2022/12/02 09:04:44;;;;;;;34.50;23.23;;;12.30;99.90;;;;;;4992862;28;20069;-72
2022/12/02 09:07:48;;;;;;;37.10;22.30;;;13.00;99.90;;;;;;4992642;28;20054;-72
2022/12/02 09:10:52;;;;;;;38.10;22.50;;;12.70;99.90;;;;;;4992834;28;20045;-72
2022/12/02 09:13:56;;;;;;;43.60;24.25;;;12.70;99.90;;;;;;4992193;28;20061;-72
2022/12/02 09:17:00;;;;;;;44.05;24.70;;;12.90;99.90;;;;;;4992553;28;20053;-72
2022/12/02 09:20:05;;;;;;;45.47;25.73;;;13.00;99.90;;;;;;4992922;28;20395;-71
2022/12/02 09:23:09;;;;;;;47.15;27.70;;;13.10;99.90;;;;;;4994361;28;20053;-73
2022/12/02 09:30:35;;;;;;;53.53;35.70;;;11.50;99.90;;;;;;4989996;28;20521;-72
2022/12/02 09:33:38;;;;;;;55.50;33.92;;;12.80;99.90;;;;;;4989871;28;20341;-70
2022/12/02 09:36:42;;;;;;;61.22;37.05;;;12.80;99.90;;;;;;4989573;28;20446;-70
2022/12/02 09:39:47;;;;;;;63.55;36.83;;;12.80;99.90;;;;;;4989689;28;20046;-71
2022/12/02 09:42:51;;;;;;;62.13;35.60;;;12.80;99.90;;;;;;4989538;28;20061;-71
2022/12/02 09:45:56;;;;;;;70.68;35.35;;;12.90;99.90;;;;;;4988895;28;20433;-71
2022/12/02 09:49:00;;;;;;;56.83;32.92;;;12.90;99.90;;;;;;4989296;28;20414;-70
2022/12/02 09:52:12;;;;;;;54.47;31.52;;;12.90;99.90;;;;;;4987810;28;20065;-69
2022/12/02 09:55:17;;;;;;;59.55;31.67;;;12.90;99.90;;;;;;4987420;28;20061;-70
2022/12/02 09:58:21;;;;;;;49.88;29.95;;;12.90;99.90;;;;;;4988740;28;20049;-69
2022/12/02 10:01:26;;;;;;;56.15;29.63;;;13.30;99.90;;;;;;4990971;28;20049;-71
2022/12/02 10:04:32;;;;;;;47.20;28.95;;;12.90;99.90;;;;;;4991331;28;20065;-70
2022/12/02 10:07:36;;;;;;;51.22;28.33;;;13.00;99.90;;;;;;4991288;28;20045;-70
2022/12/02 10:10:41;;;;;;;60.75;32.55;;;13.00;99.90;;;;;;4991626;28;20049;-71
2022/12/02 10:13:46;;;;;;;54.13;31.85;;;13.00;99.90;;;;;;4992126;28;20054;-70
2022/12/02 10:16:52;;;;;;;49.33;30.80;;;13.00;99.90;;;;;;4991768;28;20402;-70
2022/12/02 10:19:56;;;;;;;64.68;35.05;;;13.00;99.90;;;;;;4991328;28;20049;-68
2022/12/02 10:23:13;;;;;;;62.38;34.80;;;13.00;99.90;;;;;;4991527;28;20049;-68
2022/12/02 10:26:18;;;;;;;63.40;34.22;;;13.00;99.90;;;;;;4991442;28;20399;-69
2022/12/02 10:29:27;;;;;;;65.68;37.40;;;13.00;99.90;;;;;;4991439;28;20053;-71
2022/12/02 10:32:31;;;;;;;53.78;33.97;;;13.00;99.90;;;;;;4990785;28;20513;-70
2022/12/02 10:35:50;;;;;;;53.72;32.85;;;13.10;99.90;;;;;;4990978;28;20057;-70
2022/12/02 10:38:54;;;;;;;57.90;31.05;;;13.30;99.90;;;;;;4991399;28;20049;-69
2022/12/02 10:42:06;;;;;;;34.67;23.35;;;13.30;99.90;;;;;;4991035;28;20045;-69
2022/12/02 10:45:20;;;;;;;29.27;21.05;;;13.40;99.90;;;;;;4991160;28;20045;-71
2022/12/02 10:48:24;;;;;;;28.25;18.67;;;13.40;99.90;;;;;;4991816;28;20057;-70
2022/12/02 10:51:28;;;;;;;21.30;14.23;;;13.40;99.90;;;;;;4991399;28;20073;-72
2022/12/02 10:54:33;;;;;;;16.77;11.73;;;13.50;99.90;;;;;;4990994;28;20045;-72
2022/12/02 10:57:38;;;;;;;14.57;10.05;;;13.50;99.90;;;;;;4990755;28;20068;-72
2022/12/02 11:00:42;;;;;;;54.08;28.08;;;13.50;99.90;;;;;;4990954;28;20041;-72
2022/12/02 11:03:46;;;;;;;59.15;35.22;;;13.50;99.90;;;;;;4991422;28;20054;-72
2022/12/02 11:06:53;;;;;;;62.90;38.17;;;13.40;99.90;;;;;;4991377;28;20049;-72
2022/12/02 11:09:57;;;;;;;58.50;38.00;;;13.20;99.90;;;;;;4991369;28;20071;-72
2022/12/02 11:13:12;;;;;;;62.95;38.80;;;13.10;99.90;;;;;;4991509;28;20053;-72
2022/12/02 11:16:28;;;;;;;66.25;41.63;;;12.90;99.90;;;;;;4991261;28;20395;-72
2022/12/02 11:19:32;;;;;;;71.75;44.08;;;13.00;99.90;;;;;;4991182;28;20509;-72
2022/12/02 11:22:48;;;;;;;70.22;44.63;;;13.30;99.90;;;;;;5001892;28;20054;-72
2022/12/02 11:26:00;;;;;;;66.90;43.47;;;12.90;99.90;;;;;;4991283;28;20046;-72
2022/12/02 11:29:15;;;;;;;66.97;45.83;;;12.90;99.90;;;;;;4991041;28;20517;-71
2022/12/02 11:32:25;;;;;;;63.20;42.67;;;12.90;99.90;;;;;;4991114;28;20509;-71
2022/12/02 11:36:06;;;;;;;68.03;40.38;;;12.90;99.90;;;;;;4991650;28;20056;-73
2022/12/02 11:39:11;;;;;;;72.30;42.33;;;13.10;99.90;;;;;;4994611;28;20049;-71
2022/12/02 11:42:22;;;;;;;70.25;44.92;;;13.10;99.90;;;;;;4994736;28;20061;-71
2022/12/02 11:45:35;;;;;;;66.03;42.28;;;13.20;99.90;;;;;;4994758;28;20072;-71
2022/12/02 11:48:46;;;;;;;53.83;34.55;;;13.50;99.90;;;;;;4994422;28;20057;-70
2022/12/02 11:51:58;;;;;;;46.95;33.90;;;13.50;99.90;;;;;;4993417;28;20041;-70
2022/12/02 11:55:14;;;;;;;48.22;30.20;;;13.60;99.90;;;;;;4994362;28;20061;-72
2022/12/02 11:58:32;;;;;;;40.00;24.92;;;13.80;99.90;;;;;;4993866;28;20057;-72
2022/12/02 12:01:37;;;;;;;29.90;20.77;;;13.80;99.90;;;;;;4993802;28;20394;-71
2022/12/02 12:04:42;;;;;;;40.40;25.83;;;13.90;99.90;;;;;;4994092;28;20037;-72
2022/12/02 12:07:48;;;;;;;34.33;24.40;;;13.90;99.90;;;;;;4993703;28;20050;-72
2022/12/02 12:11:23;;;;;;;31.25;20.63;;;13.90;99.90;;;;;;4993805;28;20049;-72
2022/12/02 12:14:27;;;;;;;30.67;18.30;;;14.00;99.90;;;;;;4992886;28;20050;-71
2022/12/02 12:17:36;;;;;;;19.58;13.02;;;14.10;99.90;;;;;;4994013;28;20061;-71
2022/12/02 12:20:42;;;;;;;13.63;8.95;;;14.10;99.90;;;;;;4993972;28;20045;-72
2022/12/02 12:23:46;;;;;;;13.40;7.18;;;14.10;99.90;;;;;;4993748;28;20049;-71
2022/12/02 12:27:19;;;;;;;10.38;6.90;;;14.10;99.90;;;;;;4994261;28;20048;-70
2022/12/02 12:30:23;;;;;;;10.20;6.80;;;14.20;99.90;;;;;;4996137;28;20477;-70
2022/12/02 12:33:28;;;;;;;11.20;7.93;;;14.20;99.90;;;;;;4993607;28;20410;-68
2022/12/02 12:36:32;;;;;;;12.77;8.48;;;14.20;99.90;;;;;;4993586;28;20057;-69
2022/12/02 12:39:36;;;;;;;12.60;8.68;;;14.20;99.90;;;;;;4993772;28;20050;-70
2022/12/02 12:42:40;;;;;;;10.40;7.82;;;14.20;99.90;;;;;;4993922;28;20249;-70
2022/12/02 12:45:44;;;;;;;12.48;8.65;;;14.20;99.90;;;;;;4993833;28;20394;-68
2022/12/02 12:48:48;;;;;;;12.63;7.60;;;14.30;99.90;;;;;;4993852;28;20046;-69
2022/12/02 12:51:52;;;;;;;14.63;8.23;;;14.30;99.90;;;;;;4993378;28;20049;-69
2022/12/02 12:54:56;;;;;;;13.57;7.00;;;14.30;99.90;;;;;;4993633;28;20046;-70
2022/12/02 12:58:00;;;;;;;8.65;6.55;;;14.30;99.90;;;;;;4993553;28;20414;-70
2022/12/02 13:01:06;;;;;;;9.75;7.30;;;14.30;99.90;;;;;;4993198;28;20053;-69
2022/12/02 13:04:10;;;;;;;15.95;10.05;;;14.30;99.90;;;;;;4993608;28;20053;-71
2022/12/02 13:07:14;;;;;;;43.10;28.92;;;14.30;99.90;;;;;;4993194;28;20045;-69
2022/12/02 13:10:18;;;;;;;42.97;28.10;;;14.30;99.90;;;;;;4993139;28;20049;-72
2022/12/02 13:13:22;;;;;;;46.50;28.67;;;14.30;99.90;;;;;;4992335;28;20045;-70
2022/12/02 13:16:26;;;;;;;52.92;31.48;;;14.20;99.90;;;;;;4992834;28;20054;-69
2022/12/02 13:19:30;;;;;;;39.75;26.77;;;14.20;99.90;;;;;;4992755;28;20050;-68
2022/12/02 13:22:34;;;;;;;38.55;28.10;;;14.10;99.90;;;;;;4992613;28;20406;-70
2022/12/02 13:25:38;;;;;;;45.00;30.77;;;14.10;99.90;;;;;;4992176;28;20045;-70
2022/12/02 13:28:42;;;;;;;43.10;29.08;;;14.20;99.90;;;;;;4991772;28;20049;-72
2022/12/02 13:31:46;;;;;;;39.03;24.30;;;14.20;99.90;;;;;;4991838;28;20079;-71
2022/12/02 13:34:50;;;;;;;36.15;23.50;;;14.20;99.90;;;;;;4991687;28;20064;-71
2022/12/02 13:37:54;;;;;;;35.17;21.38;;;14.20;99.90;;;;;;4991898;28;20069;-71
2022/12/02 13:40:58;;;;;;;27.25;19.33;;;14.30;99.90;;;;;;4992211;28;20054;-69
2022/12/02 13:44:02;;;;;;;22.10;16.77;;;14.30;99.90;;;;;;4992454;28;20422;-71
2022/12/02 13:47:06;;;;;;;25.55;17.33;;;14.30;99.90;;;;;;4992125;28;20061;-72
2022/12/02 13:50:11;;;;;;;27.42;16.98;;;14.40;99.90;;;;;;4992473;28;20053;-70
2022/12/02 13:53:15;;;;;;;33.80;23.58;;;14.30;99.90;;;;;;4992561;28;20053;-71
2022/12/02 13:56:18;;;;;;;43.70;28.92;;;14.30;99.90;;;;;;4992092;28;20134;-71
2022/12/02 13:59:23;;;;;;;54.80;30.88;;;14.30;99.90;;;;;;4991774;28;20110;-71
2022/12/02 14:02:27;;;;;;;47.85;32.22;;;14.20;99.90;;;;;;4992047;28;20069;-70
2022/12/02 14:05:31;;;;;;;51.38;30.63;;;14.10;99.90;;;;;;4991059;28;20037;-72
2022/12/02 14:08:34;;;;;;;53.13;30.45;;;14.00;99.90;;;;;;4991541;28;20417;-72
2022/12/02 14:11:39;;;;;;;51.70;31.67;;;13.90;99.90;;;;;;4991701;28;20045;-70
2022/12/02 14:14:43;;;;;;;49.08;30.45;;;13.90;99.90;;;;;;4991719;28;20198;-71
2022/12/02 14:18:18;;;;;;;52.83;31.48;;;13.90;99.90;;;;;;4991634;28;20049;-70
2022/12/02 14:21:40;;;;;;;59.83;31.83;;;13.80;99.90;;;;;;4991817;28;20065;-71
2022/12/02 14:24:44;;;;;;;55.97;33.15;;;13.70;99.90;;;;;;4991796;28;20044;-70
2022/12/02 14:27:48;;;;;;;60.80;34.50;;;13.70;99.90;;;;;;4991410;28;20042;-71
2022/12/02 14:30:53;;;;;;;53.88;34.28;;;13.60;99.90;;;;;;4991774;28;20045;-72
2022/12/02 14:33:57;;;;;;;54.35;35.40;;;13.60;99.90;;;;;;4991860;28;20058;-73
2022/12/02 14:37:01;;;;;;;48.65;32.25;;;13.60;99.90;;;;;;4991192;28;20057;-71
2022/12/02 14:40:06;;;;;;;45.85;31.33;;;13.60;99.90;;;;;;4991459;28;20065;-73
2022/12/02 14:43:10;;;;;;;49.80;32.22;;;13.50;99.90;;;;;;4991527;28;20061;-72
2022/12/02 14:46:14;;;;;;;52.28;31.33;;;13.50;99.90;;;;;;4991806;28;20599;-72
2022/12/02 14:49:18;;;;;;;50.22;32.28;;;13.50;99.90;;;;;;4991708;28;20041;-71
2022/12/02 14:52:22;;;;;;;52.53;30.88;;;13.50;99.90;;;;;;4991399;28;20046;-71
2022/12/02 14:55:26;;;;;;;49.45;32.72;;;13.40;99.90;;;;;;4991634;28;20046;-72
2022/12/02 14:58:30;;;;;;;50.17;33.03;;;13.50;99.90;;;;;;4991316;28;20064;-72
2022/12/02 15:01:34;;;;;;;50.22;31.83;;;13.40;99.90;;;;;;4991539;28;20050;-72
2022/12/02 15:04:38;;;;;;;51.65;33.45;;;13.40;99.90;;;;;;4990467;28;20049;-72
2022/12/02 15:07:42;;;;;;;65.55;38.28;;;13.40;99.90;;;;;;4991075;28;20049;-73
2022/12/02 15:10:46;;;;;;;61.05;37.47;;;13.30;99.90;;;;;;4992699;28;20045;-72
2022/12/02 15:13:50;;;;;;;52.40;35.08;;;13.30;99.90;;;;;;4995473;28;20041;-72
2022/12/02 15:16:54;;;;;;;59.88;36.58;;;13.20;99.90;;;;;;4995311;28;20053;-72
2022/12/02 15:19:57;;;;;;;63.55;41.50;;;13.20;99.90;;;;;;4995394;28;20046;-72
2022/12/02 15:23:04;;;;;;;58.25;39.97;;;13.20;99.90;;;;;;4994582;28;20057;-72
2022/12/02 15:26:08;;;;;;;73.88;41.42;;;13.20;99.90;;;;;;4995242;28;20045;-71
2022/12/02 15:29:15;;;;;;;66.90;41.85;;;13.20;99.90;;;;;;4994933;28;20042;-71
2022/12/02 15:32:19;;;;;;;77.68;46.22;;;13.10;99.90;;;;;;4994518;28;20061;-72
2022/12/02 15:35:23;;;;;;;68.40;42.47;;;13.10;99.90;;;;;;4994755;28;20053;-71
2022/12/02 15:38:29;;;;;;;72.07;42.33;;;13.10;99.90;;;;;;4994689;28;20046;-72
2022/12/02 15:41:36;;;;;;;72.15;44.55;;;13.00;99.90;;;;;;4994692;28;20069;-73
2022/12/02 15:44:40;;;;;;;72.50;46.13;;;13.00;99.90;;;;;;4994743;28;20505;-72
2022/12/02 15:47:44;;;;;;;77.90;48.47;;;13.10;99.90;;;;;;4994619;28;20053;-72
2022/12/02 15:50:51;;;;;;;76.00;44.67;;;13.10;99.90;;;;;;4994724;28;20049;-72
2022/12/02 15:54:05;;;;;;;69.93;43.35;;;13.10;99.90;;;;;;4994518;28;20426;-72
2022/12/02 15:57:09;;;;;;;62.35;33.20;;;13.10;99.90;;;;;;4994211;28;20069;-72
2022/12/02 16:00:16;;;;;;;58.15;35.22;;;13.10;99.90;;;;;;4994122;28;20045;-71
2022/12/02 16:03:20;;;;;;;53.60;36.45;;;13.20;99.90;;;;;;4994542;28;20510;-71
2022/12/02 16:06:24;;;;;;;49.30;32.85;;;13.30;99.90;;;;;;4993928;28;20065;-72
2022/12/02 16:09:28;;;;;;;48.50;30.63;;;13.30;99.90;;;;;;4993955;28;20041;-70
2022/12/02 16:12:35;;;;;;;57.83;30.58;;;13.30;99.90;;;;;;4993590;28;20386;-70
2022/12/02 16:15:39;;;;;;;40.05;25.27;;;12.40;99.90;;;;;;4993158;28;20418;-71
2022/12/02 16:18:43;;;;;;;40.20;26.70;;;13.20;99.90;;;;;;4994227;28;20045;-70
2022/12/02 16:21:47;;;;;;;35.30;24.30;;;14.80;99.90;;;;;;4993536;28;20113;-71
2022/12/02 16:24:51;;;;;;;45.28;28.88;;;13.30;99.90;;;;;;4993825;28;20049;-70